Search for airport 
image banner adimage banner adimage banner ad
image banner ad

PN59 - Stitt

Located in Kittanning, United States

ICAO - PN59, IATA -

Data provided by Airmate  

General information

Coordinates: N40°49'52" W79°29'13"
Elevation is 1200 feet MSL.
Magnetic variation is -09° East
View others Airports in Pennsylvania

Operational data

Special qualification required
Current time UTC:
Current local time:
METAR: KIDI 091315Z AUTO 19004KT 9SM SCT029 OVC035 07/04 A3007 RMK A01
View NOTAMs / SUP AIP / TFR affecting this airport [VIEW]
Communications frequencies: [VIEW]

Runways:

RWY identifierQFULength (ft)Width (ft)SurfaceLDA (ft)
011800100GRASS
191800100GRASS

Airport contact information

Address: Kittanning United States

Satellite view of PN59